sensor_id;sensor_type;location;lat;lon;timestamp;P1;durP1;ratioP1;P2;durP2;ratioP2
74162;SDS011;62515;52.758;5.076;2022-10-04T00:00:55;10.82;;;7.97;;
74162;SDS011;62515;52.758;5.076;2022-10-04T00:03:26;15.63;;;9.68;;
74162;SDS011;62515;52.758;5.076;2022-10-04T00:05:58;10.30;;;8.15;;
74162;SDS011;62515;52.758;5.076;2022-10-04T00:11:02;12.98;;;8.40;;
74162;SDS011;62515;52.758;5.076;2022-10-04T00:13:33;11.85;;;5.97;;
74162;SDS011;62515;52.758;5.076;2022-10-04T00:16:02;16.52;;;9.55;;
74162;SDS011;62515;52.758;5.076;2022-10-04T00:18:30;16.25;;;9.57;;
74162;SDS011;62515;52.758;5.076;2022-10-04T00:21:04;10.57;;;8.80;;
74162;SDS011;62515;52.758;5.076;2022-10-04T00:23:42;15.95;;;9.13;;
74162;SDS011;62515;52.758;5.076;2022-10-04T00:26:14;12.35;;;8.63;;
74162;SDS011;62515;52.758;5.076;2022-10-04T00:28:57;11.50;;;6.25;;
74162;SDS011;62515;52.758;5.076;2022-10-04T00:31:24;14.70;;;9.50;;
74162;SDS011;62515;52.758;5.076;2022-10-04T00:33:53;10.60;;;6.63;;
74162;SDS011;62515;52.758;5.076;2022-10-04T00:39:15;17.27;;;9.57;;
74162;SDS011;62515;52.758;5.076;2022-10-04T00:41:55;14.55;;;9.45;;
74162;SDS011;62515;52.758;5.076;2022-10-04T00:44:32;24.05;;;10.75;;
74162;SDS011;62515;52.758;5.076;2022-10-04T00:47:11;12.30;;;9.95;;
74162;SDS011;62515;52.758;5.076;2022-10-04T00:49:45;12.93;;;9.45;;
74162;SDS011;62515;52.758;5.076;2022-10-04T00:52:14;10.40;;;9.30;;
74162;SDS011;62515;52.758;5.076;2022-10-04T00:54:47;14.95;;;10.10;;
74162;SDS011;62515;52.758;5.076;2022-10-04T00:57:18;15.60;;;9.13;;
74162;SDS011;62515;52.758;5.076;2022-10-04T00:59:51;16.00;;;9.13;;
74162;SDS011;62515;52.758;5.076;2022-10-04T01:02:22;11.50;;;8.95;;
74162;SDS011;62515;52.758;5.076;2022-10-04T01:04:53;11.20;;;9.52;;
74162;SDS011;62515;52.758;5.076;2022-10-04T01:07:25;18.13;;;9.48;;
74162;SDS011;62515;52.758;5.076;2022-10-04T01:09:56;21.88;;;9.45;;
74162;SDS011;62515;52.758;5.076;2022-10-04T01:12:32;18.48;;;10.25;;
74162;SDS011;62515;52.758;5.076;2022-10-04T01:15:08;18.80;;;10.45;;
74162;SDS011;62515;52.758;5.076;2022-10-04T01:17:40;16.08;;;7.50;;
74162;SDS011;62515;52.758;5.076;2022-10-04T01:20:23;18.02;;;10.07;;
74162;SDS011;62515;52.758;5.076;2022-10-04T01:22:58;24.30;;;12.32;;
74162;SDS011;62515;52.758;5.076;2022-10-04T01:28:08;20.02;;;11.20;;
74162;SDS011;62515;52.758;5.076;2022-10-04T01:30:35;17.17;;;9.98;;
74162;SDS011;62515;52.758;5.076;2022-10-04T01:33:02;14.13;;;9.60;;
74162;SDS011;62515;52.758;5.076;2022-10-04T01:35:32;19.02;;;9.68;;
74162;SDS011;62515;52.758;5.076;2022-10-04T01:38:04;17.33;;;9.15;;
74162;SDS011;62515;52.758;5.076;2022-10-04T01:40:32;17.45;;;10.05;;
74162;SDS011;62515;52.758;5.076;2022-10-04T01:43:00;14.98;;;9.20;;
74162;SDS011;62515;52.758;5.076;2022-10-04T01:45:33;15.75;;;9.57;;
74162;SDS011;62515;52.758;5.076;2022-10-04T01:48:04;15.73;;;10.02;;
74162;SDS011;62515;52.758;5.076;2022-10-04T01:50:36;13.80;;;9.57;;
74162;SDS011;62515;52.758;5.076;2022-10-04T01:53:12;11.05;;;7.53;;
74162;SDS011;62515;52.758;5.076;2022-10-04T01:55:44;13.93;;;9.85;;
74162;SDS011;62515;52.758;5.076;2022-10-04T01:58:16;14.43;;;9.13;;
74162;SDS011;62515;52.758;5.076;2022-10-04T02:00:46;13.55;;;9.88;;
74162;SDS011;62515;52.758;5.076;2022-10-04T02:03:18;18.95;;;10.00;;
74162;SDS011;62515;52.758;5.076;2022-10-04T02:05:50;13.73;;;10.50;;
74162;SDS011;62515;52.758;5.076;2022-10-04T02:08:24;17.27;;;10.57;;
74162;SDS011;62515;52.758;5.076;2022-10-04T02:10:54;15.13;;;9.52;;
74162;SDS011;62515;52.758;5.076;2022-10-04T02:13:23;14.30;;;9.80;;
74162;SDS011;62515;52.758;5.076;2022-10-04T02:15:55;15.32;;;10.60;;
74162;SDS011;62515;52.758;5.076;2022-10-04T02:18:24;17.40;;;11.95;;
74162;SDS011;62515;52.758;5.076;2022-10-04T02:20:52;17.35;;;9.57;;
74162;SDS011;62515;52.758;5.076;2022-10-04T02:23:21;16.50;;;10.50;;
74162;SDS011;62515;52.758;5.076;2022-10-04T02:25:50;13.70;;;10.27;;
74162;SDS011;62515;52.758;5.076;2022-10-04T02:28:17;16.25;;;10.40;;
74162;SDS011;62515;52.758;5.076;2022-10-04T02:30:45;17.65;;;10.95;;
74162;SDS011;62515;52.758;5.076;2022-10-04T02:33:37;17.80;;;11.68;;
74162;SDS011;62515;52.758;5.076;2022-10-04T02:36:06;21.27;;;10.40;;
74162;SDS011;62515;52.758;5.076;2022-10-04T02:38:35;13.85;;;10.50;;
74162;SDS011;62515;52.758;5.076;2022-10-04T02:41:10;14.00;;;11.68;;
74162;SDS011;62515;52.758;5.076;2022-10-04T02:43:48;17.48;;;12.27;;
74162;SDS011;62515;52.758;5.076;2022-10-04T02:46:20;19.65;;;12.23;;
74162;SDS011;62515;52.758;5.076;2022-10-04T02:48:52;14.02;;;9.32;;
74162;SDS011;62515;52.758;5.076;2022-10-04T02:51:23;16.38;;;12.70;;
74162;SDS011;62515;52.758;5.076;2022-10-04T02:53:59;21.65;;;11.05;;
74162;SDS011;62515;52.758;5.076;2022-10-04T02:56:30;17.85;;;12.40;;
74162;SDS011;62515;52.758;5.076;2022-10-04T02:58:59;16.45;;;11.57;;
74162;SDS011;62515;52.758;5.076;2022-10-04T03:01:34;16.05;;;11.27;;
74162;SDS011;62515;52.758;5.076;2022-10-04T03:04:06;19.38;;;12.40;;
74162;SDS011;62515;52.758;5.076;2022-10-04T03:06:37;16.42;;;10.02;;
74162;SDS011;62515;52.758;5.076;2022-10-04T03:09:04;14.13;;;11.40;;
74162;SDS011;62515;52.758;5.076;2022-10-04T03:11:34;22.67;;;13.38;;
74162;SDS011;62515;52.758;5.076;2022-10-04T03:14:05;15.10;;;11.85;;
74162;SDS011;62515;52.758;5.076;2022-10-04T03:16:36;16.77;;;12.77;;
74162;SDS011;62515;52.758;5.076;2022-10-04T03:19:04;19.50;;;13.00;;
74162;SDS011;62515;52.758;5.076;2022-10-04T03:21:33;15.18;;;12.00;;
74162;SDS011;62515;52.758;5.076;2022-10-04T03:24:02;13.95;;;11.52;;
74162;SDS011;62515;52.758;5.076;2022-10-04T03:29:03;22.52;;;12.65;;
74162;SDS011;62515;52.758;5.076;2022-10-04T03:31:36;21.58;;;13.02;;
74162;SDS011;62515;52.758;5.076;2022-10-04T03:34:11;19.73;;;12.63;;
74162;SDS011;62515;52.758;5.076;2022-10-04T03:36:39;22.10;;;13.13;;
74162;SDS011;62515;52.758;5.076;2022-10-04T03:39:07;20.40;;;14.10;;
74162;SDS011;62515;52.758;5.076;2022-10-04T03:41:37;19.95;;;12.88;;
74162;SDS011;62515;52.758;5.076;2022-10-04T03:44:07;17.13;;;14.55;;
74162;SDS011;62515;52.758;5.076;2022-10-04T03:46:41;19.85;;;14.63;;
74162;SDS011;62515;52.758;5.076;2022-10-04T03:49:09;20.42;;;11.70;;
74162;SDS011;62515;52.758;5.076;2022-10-04T03:51:42;19.92;;;15.13;;
74162;SDS011;62515;52.758;5.076;2022-10-04T03:54:12;26.00;;;15.68;;
74162;SDS011;62515;52.758;5.076;2022-10-04T03:56:46;19.40;;;15.20;;
74162;SDS011;62515;52.758;5.076;2022-10-04T03:59:15;23.75;;;15.23;;
74162;SDS011;62515;52.758;5.076;2022-10-04T04:01:44;22.67;;;12.23;;
74162;SDS011;62515;52.758;5.076;2022-10-04T04:04:16;23.58;;;14.60;;
74162;SDS011;62515;52.758;5.076;2022-10-04T04:06:50;19.65;;;14.77;;
74162;SDS011;62515;52.758;5.076;2022-10-04T04:09:22;21.95;;;13.85;;
74162;SDS011;62515;52.758;5.076;2022-10-04T04:11:53;18.40;;;14.70;;
74162;SDS011;62515;52.758;5.076;2022-10-04T04:16:52;18.30;;;15.02;;
74162;SDS011;62515;52.758;5.076;2022-10-04T04:19:21;23.45;;;15.30;;
74162;SDS011;62515;52.758;5.076;2022-10-04T04:21:52;25.08;;;15.40;;
74162;SDS011;62515;52.758;5.076;2022-10-04T04:26:51;18.55;;;14.02;;
74162;SDS011;62515;52.758;5.076;2022-10-04T04:29:22;19.77;;;15.20;;
74162;SDS011;62515;52.758;5.076;2022-10-04T04:31:53;19.20;;;13.82;;
74162;SDS011;62515;52.758;5.076;2022-10-04T04:34:25;19.92;;;15.07;;
74162;SDS011;62515;52.758;5.076;2022-10-04T04:36:56;21.33;;;14.13;;
74162;SDS011;62515;52.758;5.076;2022-10-04T04:39:24;19.60;;;13.93;;
74162;SDS011;62515;52.758;5.076;2022-10-04T04:42:04;24.48;;;15.77;;
74162;SDS011;62515;52.758;5.076;2022-10-04T04:44:43;20.42;;;16.13;;
74162;SDS011;62515;52.758;5.076;2022-10-04T04:47:16;20.20;;;14.82;;
74162;SDS011;62515;52.758;5.076;2022-10-04T04:49:50;21.27;;;14.60;;
74162;SDS011;62515;52.758;5.076;2022-10-04T04:52:18;26.95;;;15.45;;
74162;SDS011;62515;52.758;5.076;2022-10-04T04:54:48;20.50;;;11.10;;
74162;SDS011;62515;52.758;5.076;2022-10-04T04:57:15;20.73;;;16.08;;
74162;SDS011;62515;52.758;5.076;2022-10-04T04:59:44;20.65;;;16.48;;
74162;SDS011;62515;52.758;5.076;2022-10-04T05:02:27;22.85;;;18.27;;
74162;SDS011;62515;52.758;5.076;2022-10-04T05:05:17;18.80;;;15.05;;
74162;SDS011;62515;52.758;5.076;2022-10-04T05:07:46;24.33;;;16.10;;
74162;SDS011;62515;52.758;5.076;2022-10-04T05:10:20;20.33;;;14.80;;
74162;SDS011;62515;52.758;5.076;2022-10-04T05:12:53;20.08;;;15.32;;
74162;SDS011;62515;52.758;5.076;2022-10-04T05:15:22;19.17;;;14.27;;
74162;SDS011;62515;52.758;5.076;2022-10-04T05:17:49;23.27;;;15.25;;
74162;SDS011;62515;52.758;5.076;2022-10-04T05:20:15;29.02;;;15.20;;
74162;SDS011;62515;52.758;5.076;2022-10-04T05:22:44;17.98;;;14.10;;
74162;SDS011;62515;52.758;5.076;2022-10-04T05:25:14;19.30;;;13.57;;
74162;SDS011;62515;52.758;5.076;2022-10-04T05:27:48;19.55;;;13.02;;
74162;SDS011;62515;52.758;5.076;2022-10-04T05:30:20;24.50;;;14.02;;
74162;SDS011;62515;52.758;5.076;2022-10-04T05:32:59;24.17;;;14.50;;
74162;SDS011;62515;52.758;5.076;2022-10-04T05:35:27;23.75;;;16.25;;
74162;SDS011;62515;52.758;5.076;2022-10-04T05:38:00;21.42;;;14.63;;
74162;SDS011;62515;52.758;5.076;2022-10-04T05:40:34;19.08;;;11.98;;
74162;SDS011;62515;52.758;5.076;2022-10-04T05:43:20;22.33;;;14.88;;
74162;SDS011;62515;52.758;5.076;2022-10-04T05:48:42;22.65;;;13.90;;
74162;SDS011;62515;52.758;5.076;2022-10-04T05:51:11;27.98;;;13.43;;
74162;SDS011;62515;52.758;5.076;2022-10-04T05:53:43;22.48;;;12.85;;
74162;SDS011;62515;52.758;5.076;2022-10-04T05:56:16;26.00;;;14.07;;
74162;SDS011;62515;52.758;5.076;2022-10-04T05:58:58;22.15;;;13.10;;
74162;SDS011;62515;52.758;5.076;2022-10-04T06:01:39;25.85;;;13.15;;
74162;SDS011;62515;52.758;5.076;2022-10-04T06:07:06;26.23;;;13.32;;
74162;SDS011;62515;52.758;5.076;2022-10-04T06:09:45;26.67;;;16.23;;
74162;SDS011;62515;52.758;5.076;2022-10-04T06:12:24;23.63;;;13.90;;
74162;SDS011;62515;52.758;5.076;2022-10-04T06:15:14;24.67;;;15.02;;
74162;SDS011;62515;52.758;5.076;2022-10-04T06:17:55;20.25;;;14.32;;
74162;SDS011;62515;52.758;5.076;2022-10-04T06:20:48;19.33;;;14.10;;
74162;SDS011;62515;52.758;5.076;2022-10-04T06:23:23;24.70;;;14.82;;
74162;SDS011;62515;52.758;5.076;2022-10-04T06:25:55;23.48;;;14.68;;
74162;SDS011;62515;52.758;5.076;2022-10-04T06:28:26;27.13;;;13.63;;
74162;SDS011;62515;52.758;5.076;2022-10-04T06:31:08;28.58;;;15.10;;
74162;SDS011;62515;52.758;5.076;2022-10-04T06:33:58;23.35;;;13.90;;
74162;SDS011;62515;52.758;5.076;2022-10-04T06:36:47;25.10;;;14.70;;
74162;SDS011;62515;52.758;5.076;2022-10-04T06:39:34;27.42;;;14.10;;
74162;SDS011;62515;52.758;5.076;2022-10-04T06:45:06;20.42;;;11.82;;
74162;SDS011;62515;52.758;5.076;2022-10-04T06:47:51;20.25;;;14.65;;
74162;SDS011;62515;52.758;5.076;2022-10-04T06:50:38;27.10;;;16.77;;
74162;SDS011;62515;52.758;5.076;2022-10-04T06:53:22;24.02;;;13.73;;
74162;SDS011;62515;52.758;5.076;2022-10-04T06:56:02;21.83;;;13.02;;
74162;SDS011;62515;52.758;5.076;2022-10-04T06:58:46;23.98;;;13.48;;
74162;SDS011;62515;52.758;5.076;2022-10-04T07:01:30;20.73;;;12.32;;
74162;SDS011;62515;52.758;5.076;2022-10-04T07:04:01;23.30;;;14.20;;
74162;SDS011;62515;52.758;5.076;2022-10-04T07:06:37;21.90;;;12.45;;
74162;SDS011;62515;52.758;5.076;2022-10-04T07:09:15;26.15;;;13.90;;
74162;SDS011;62515;52.758;5.076;2022-10-04T07:11:48;22.35;;;13.77;;
74162;SDS011;62515;52.758;5.076;2022-10-04T07:14:19;20.20;;;11.32;;
74162;SDS011;62515;52.758;5.076;2022-10-04T07:16:54;22.65;;;11.63;;
74162;SDS011;62515;52.758;5.076;2022-10-04T07:19:27;19.75;;;12.07;;
74162;SDS011;62515;52.758;5.076;2022-10-04T07:22:02;17.30;;;11.45;;
74162;SDS011;62515;52.758;5.076;2022-10-04T07:24:47;16.83;;;12.05;;
74162;SDS011;62515;52.758;5.076;2022-10-04T07:27:23;20.77;;;11.88;;
74162;SDS011;62515;52.758;5.076;2022-10-04T07:29:55;19.60;;;11.57;;
74162;SDS011;62515;52.758;5.076;2022-10-04T07:32:25;17.75;;;12.52;;
74162;SDS011;62515;52.758;5.076;2022-10-04T07:34:56;19.92;;;11.73;;
74162;SDS011;62515;52.758;5.076;2022-10-04T07:37:28;20.95;;;12.25;;
74162;SDS011;62515;52.758;5.076;2022-10-04T07:40:03;21.17;;;12.82;;
74162;SDS011;62515;52.758;5.076;2022-10-04T07:42:36;18.77;;;13.23;;
74162;SDS011;62515;52.758;5.076;2022-10-04T07:45:12;18.25;;;11.25;;
74162;SDS011;62515;52.758;5.076;2022-10-04T07:47:44;18.23;;;12.35;;
74162;SDS011;62515;52.758;5.076;2022-10-04T07:50:18;17.95;;;11.23;;
74162;SDS011;62515;52.758;5.076;2022-10-04T07:52:52;18.67;;;11.57;;
74162;SDS011;62515;52.758;5.076;2022-10-04T07:58:06;21.20;;;12.35;;
74162;SDS011;62515;52.758;5.076;2022-10-04T08:00:44;22.55;;;12.80;;
74162;SDS011;62515;52.758;5.076;2022-10-04T08:03:22;24.35;;;12.98;;
74162;SDS011;62515;52.758;5.076;2022-10-04T08:05:59;21.60;;;13.75;;
74162;SDS011;62515;52.758;5.076;2022-10-04T08:08:42;19.92;;;12.32;;
74162;SDS011;62515;52.758;5.076;2022-10-04T08:11:23;18.25;;;11.65;;
74162;SDS011;62515;52.758;5.076;2022-10-04T08:14:04;20.65;;;13.30;;
74162;SDS011;62515;52.758;5.076;2022-10-04T08:16:45;20.10;;;14.93;;
74162;SDS011;62515;52.758;5.076;2022-10-04T08:19:28;24.88;;;13.63;;
74162;SDS011;62515;52.758;5.076;2022-10-04T08:22:04;21.67;;;12.43;;
74162;SDS011;62515;52.758;5.076;2022-10-04T08:24:41;18.92;;;12.43;;
74162;SDS011;62515;52.758;5.076;2022-10-04T08:27:37;18.33;;;12.65;;
74162;SDS011;62515;52.758;5.076;2022-10-04T08:30:39;21.00;;;11.18;;
74162;SDS011;62515;52.758;5.076;2022-10-04T08:33:21;19.83;;;11.38;;
74162;SDS011;62515;52.758;5.076;2022-10-04T08:35:59;21.67;;;12.02;;
74162;SDS011;62515;52.758;5.076;2022-10-04T08:38:40;19.55;;;12.10;;
74162;SDS011;62515;52.758;5.076;2022-10-04T08:44:32;20.50;;;11.23;;
74162;SDS011;62515;52.758;5.076;2022-10-04T08:50:47;18.08;;;11.20;;
74162;SDS011;62515;52.758;5.076;2022-10-04T08:53:43;22.60;;;11.27;;
74162;SDS011;62515;52.758;5.076;2022-10-04T08:56:37;26.27;;;17.80;;
74162;SDS011;62515;52.758;5.076;2022-10-04T08:59:33;18.77;;;11.73;;
74162;SDS011;62515;52.758;5.076;2022-10-04T09:02:34;19.80;;;12.82;;
74162;SDS011;62515;52.758;5.076;2022-10-04T09:05:22;18.40;;;11.40;;
74162;SDS011;62515;52.758;5.076;2022-10-04T09:08:02;21.90;;;12.48;;
74162;SDS011;62515;52.758;5.076;2022-10-04T09:10:49;20.70;;;12.35;;
74162;SDS011;62515;52.758;5.076;2022-10-04T09:13:33;21.52;;;13.43;;
74162;SDS011;62515;52.758;5.076;2022-10-04T09:16:16;19.50;;;12.98;;
74162;SDS011;62515;52.758;5.076;2022-10-04T09:18:48;19.35;;;11.60;;
74162;SDS011;62515;52.758;5.076;2022-10-04T09:21:21;25.33;;;13.73;;
74162;SDS011;62515;52.758;5.076;2022-10-04T09:24:09;23.13;;;13.73;;
74162;SDS011;62515;52.758;5.076;2022-10-04T09:26:50;21.38;;;12.38;;
74162;SDS011;62515;52.758;5.076;2022-10-04T09:29:31;22.15;;;11.65;;
74162;SDS011;62515;52.758;5.076;2022-10-04T09:32:29;20.13;;;12.35;;
74162;SDS011;62515;52.758;5.076;2022-10-04T09:38:22;21.00;;;13.43;;
74162;SDS011;62515;52.758;5.076;2022-10-04T09:50:14;19.65;;;13.48;;
74162;SDS011;62515;52.758;5.076;2022-10-04T09:53:10;16.23;;;11.45;;
74162;SDS011;62515;52.758;5.076;2022-10-04T09:56:13;20.13;;;10.90;;
74162;SDS011;62515;52.758;5.076;2022-10-04T10:02:33;15.18;;;10.75;;
74162;SDS011;62515;52.758;5.076;2022-10-04T10:05:24;13.23;;;9.95;;
74162;SDS011;62515;52.758;5.076;2022-10-04T10:08:06;11.70;;;9.85;;
74162;SDS011;62515;52.758;5.076;2022-10-04T10:10:40;13.07;;;9.77;;
74162;SDS011;62515;52.758;5.076;2022-10-04T10:13:41;14.27;;;9.70;;
74162;SDS011;62515;52.758;5.076;2022-10-04T10:16:37;10.98;;;8.52;;
74162;SDS011;62515;52.758;5.076;2022-10-04T10:19:23;11.27;;;8.02;;
74162;SDS011;62515;52.758;5.076;2022-10-04T10:22:13;9.82;;;8.10;;
74162;SDS011;62515;52.758;5.076;2022-10-04T10:25:14;14.65;;;9.13;;
74162;SDS011;62515;52.758;5.076;2022-10-04T10:27:55;11.95;;;8.73;;
74162;SDS011;62515;52.758;5.076;2022-10-04T10:30:31;12.68;;;8.15;;
74162;SDS011;62515;52.758;5.076;2022-10-04T10:33:23;11.52;;;8.40;;
74162;SDS011;62515;52.758;5.076;2022-10-04T10:36:08;10.30;;;7.25;;
74162;SDS011;62515;52.758;5.076;2022-10-04T10:45:21;9.45;;;7.50;;
74162;SDS011;62515;52.758;5.076;2022-10-04T10:48:03;10.20;;;7.07;;
74162;SDS011;62515;52.758;5.076;2022-10-04T10:53:39;11.05;;;8.35;;
74162;SDS011;62515;52.758;5.076;2022-10-04T10:56:34;8.65;;;6.63;;
74162;SDS011;62515;52.758;5.076;2022-10-04T11:05:53;9.40;;;6.35;;
74162;SDS011;62515;52.758;5.076;2022-10-04T11:29:57;12.40;;;8.23;;
74162;SDS011;62515;52.758;5.076;2022-10-04T11:35:59;10.00;;;7.60;;
74162;SDS011;62515;52.758;5.076;2022-10-04T11:38:51;12.38;;;8.38;;
74162;SDS011;62515;52.758;5.076;2022-10-04T11:41:32;11.68;;;8.80;;
74162;SDS011;62515;52.758;5.076;2022-10-04T11:44:16;9.02;;;6.95;;
74162;SDS011;62515;52.758;5.076;2022-10-04T11:47:07;9.43;;;7.10;;
74162;SDS011;62515;52.758;5.076;2022-10-04T11:49:49;8.32;;;6.63;;
74162;SDS011;62515;52.758;5.076;2022-10-04T11:58:31;10.82;;;7.03;;
74162;SDS011;62515;52.758;5.076;2022-10-04T12:01:12;6.68;;;5.65;;
74162;SDS011;62515;52.758;5.076;2022-10-04T12:04:21;8.30;;;6.68;;
74162;SDS011;62515;52.758;5.076;2022-10-04T12:07:32;6.93;;;5.15;;
74162;SDS011;62515;52.758;5.076;2022-10-04T12:16:20;7.55;;;6.03;;
74162;SDS011;62515;52.758;5.076;2022-10-04T12:19:17;9.18;;;5.63;;
74162;SDS011;62515;52.758;5.076;2022-10-04T12:25:02;10.27;;;6.03;;
74162;SDS011;62515;52.758;5.076;2022-10-04T12:31:10;11.02;;;5.05;;
74162;SDS011;62515;52.758;5.076;2022-10-04T12:33:47;7.07;;;5.65;;
74162;SDS011;62515;52.758;5.076;2022-10-04T12:36:29;6.95;;;5.60;;
74162;SDS011;62515;52.758;5.076;2022-10-04T12:42:11;8.10;;;5.60;;
74162;SDS011;62515;52.758;5.076;2022-10-04T12:50:52;7.97;;;6.15;;
74162;SDS011;62515;52.758;5.076;2022-10-04T12:53:32;9.05;;;5.88;;
74162;SDS011;62515;52.758;5.076;2022-10-04T12:56:12;7.88;;;5.38;;
74162;SDS011;62515;52.758;5.076;2022-10-04T12:59:03;10.90;;;5.70;;
74162;SDS011;62515;52.758;5.076;2022-10-04T13:01:49;7.38;;;5.50;;
74162;SDS011;62515;52.758;5.076;2022-10-04T13:04:27;6.55;;;5.60;;
74162;SDS011;62515;52.758;5.076;2022-10-04T13:07:08;6.90;;;6.13;;
74162;SDS011;62515;52.758;5.076;2022-10-04T13:09:54;7.20;;;5.00;;
74162;SDS011;62515;52.758;5.076;2022-10-04T13:13:00;6.80;;;6.15;;
74162;SDS011;62515;52.758;5.076;2022-10-04T13:18:33;6.57;;;5.53;;
74162;SDS011;62515;52.758;5.076;2022-10-04T13:21:08;7.40;;;4.95;;
74162;SDS011;62515;52.758;5.076;2022-10-04T13:23:46;7.55;;;4.82;;
74162;SDS011;62515;52.758;5.076;2022-10-04T13:26:34;6.15;;;5.22;;
74162;SDS011;62515;52.758;5.076;2022-10-04T13:29:10;6.22;;;5.43;;
74162;SDS011;62515;52.758;5.076;2022-10-04T13:31:49;8.05;;;4.28;;
74162;SDS011;62515;52.758;5.076;2022-10-04T13:34:27;6.65;;;5.05;;
74162;SDS011;62515;52.758;5.076;2022-10-04T13:37:08;5.90;;;4.93;;
74162;SDS011;62515;52.758;5.076;2022-10-04T13:39:50;9.07;;;5.35;;
74162;SDS011;62515;52.758;5.076;2022-10-04T13:42:34;7.13;;;5.35;;
74162;SDS011;62515;52.758;5.076;2022-10-04T13:45:14;11.63;;;5.60;;
74162;SDS011;62515;52.758;5.076;2022-10-04T13:47:58;9.70;;;5.75;;
74162;SDS011;62515;52.758;5.076;2022-10-04T13:50:44;9.68;;;6.22;;
74162;SDS011;62515;52.758;5.076;2022-10-04T13:53:30;13.20;;;6.85;;
74162;SDS011;62515;52.758;5.076;2022-10-04T13:56:37;10.65;;;5.70;;
74162;SDS011;62515;52.758;5.076;2022-10-04T13:59:16;8.85;;;5.75;;
74162;SDS011;62515;52.758;5.076;2022-10-04T14:05:01;9.13;;;5.57;;
74162;SDS011;62515;52.758;5.076;2022-10-04T14:08:08;11.18;;;5.63;;
74162;SDS011;62515;52.758;5.076;2022-10-04T14:14:08;6.68;;;6.03;;
74162;SDS011;62515;52.758;5.076;2022-10-04T14:17:12;7.30;;;5.60;;
74162;SDS011;62515;52.758;5.076;2022-10-04T14:23:18;8.65;;;5.90;;
74162;SDS011;62515;52.758;5.076;2022-10-04T14:29:08;6.63;;;5.40;;
74162;SDS011;62515;52.758;5.076;2022-10-04T14:32:02;7.65;;;5.53;;
74162;SDS011;62515;52.758;5.076;2022-10-04T14:34:50;7.20;;;5.50;;
74162;SDS011;62515;52.758;5.076;2022-10-04T14:37:36;7.47;;;5.47;;
74162;SDS011;62515;52.758;5.076;2022-10-04T14:43:44;9.40;;;6.65;;
74162;SDS011;62515;52.758;5.076;2022-10-04T14:46:40;10.15;;;6.97;;
74162;SDS011;62515;52.758;5.076;2022-10-04T14:49:16;8.77;;;6.40;;
74162;SDS011;62515;52.758;5.076;2022-10-04T14:51:55;8.45;;;6.93;;
74162;SDS011;62515;52.758;5.076;2022-10-04T14:54:35;9.60;;;7.95;;
74162;SDS011;62515;52.758;5.076;2022-10-04T14:57:15;8.52;;;6.63;;
74162;SDS011;62515;52.758;5.076;2022-10-04T14:59:57;11.57;;;7.00;;
74162;SDS011;62515;52.758;5.076;2022-10-04T15:08:50;13.10;;;6.32;;
74162;SDS011;62515;52.758;5.076;2022-10-04T15:11:41;8.65;;;6.13;;
74162;SDS011;62515;52.758;5.076;2022-10-04T15:14:35;14.48;;;6.78;;
74162;SDS011;62515;52.758;5.076;2022-10-04T15:17:06;9.40;;;6.90;;
74162;SDS011;62515;52.758;5.076;2022-10-04T15:19:43;7.40;;;6.63;;
74162;SDS011;62515;52.758;5.076;2022-10-04T15:22:22;10.90;;;7.25;;
74162;SDS011;62515;52.758;5.076;2022-10-04T15:24:52;10.02;;;6.55;;
74162;SDS011;62515;52.758;5.076;2022-10-04T15:30:19;6.70;;;5.97;;
74162;SDS011;62515;52.758;5.076;2022-10-04T15:33:06;12.05;;;7.35;;
74162;SDS011;62515;52.758;5.076;2022-10-04T15:35:45;12.20;;;7.25;;
74162;SDS011;62515;52.758;5.076;2022-10-04T15:38:21;10.50;;;6.88;;
74162;SDS011;62515;52.758;5.076;2022-10-04T15:40:59;8.20;;;6.97;;
74162;SDS011;62515;52.758;5.076;2022-10-04T15:43:33;11.18;;;7.78;;
74162;SDS011;62515;52.758;5.076;2022-10-04T15:46:23;11.30;;;8.07;;
74162;SDS011;62515;52.758;5.076;2022-10-04T15:49:11;10.27;;;6.55;;
74162;SDS011;62515;52.758;5.076;2022-10-04T15:52:00;11.57;;;7.25;;
74162;SDS011;62515;52.758;5.076;2022-10-04T16:00:38;10.18;;;7.50;;
74162;SDS011;62515;52.758;5.076;2022-10-04T16:03:14;11.32;;;7.35;;
74162;SDS011;62515;52.758;5.076;2022-10-04T16:05:57;10.02;;;7.90;;
74162;SDS011;62515;52.758;5.076;2022-10-04T16:08:36;15.27;;;7.72;;
74162;SDS011;62515;52.758;5.076;2022-10-04T16:11:22;15.35;;;8.25;;
74162;SDS011;62515;52.758;5.076;2022-10-04T16:14:23;11.85;;;8.35;;
74162;SDS011;62515;52.758;5.076;2022-10-04T16:17:25;11.30;;;9.30;;
74162;SDS011;62515;52.758;5.076;2022-10-04T16:25:51;10.52;;;7.20;;
74162;SDS011;62515;52.758;5.076;2022-10-04T16:28:21;11.65;;;8.13;;
74162;SDS011;62515;52.758;5.076;2022-10-04T16:31:19;11.07;;;8.45;;
74162;SDS011;62515;52.758;5.076;2022-10-04T16:33:56;13.32;;;7.85;;
74162;SDS011;62515;52.758;5.076;2022-10-04T16:36:29;11.30;;;8.32;;
74162;SDS011;62515;52.758;5.076;2022-10-04T16:39:10;13.65;;;9.32;;
74162;SDS011;62515;52.758;5.076;2022-10-04T16:42:14;15.93;;;12.20;;
74162;SDS011;62515;52.758;5.076;2022-10-04T16:44:46;11.70;;;10.43;;
74162;SDS011;62515;52.758;5.076;2022-10-04T16:47:18;12.45;;;8.35;;
74162;SDS011;62515;52.758;5.076;2022-10-04T16:49:50;12.05;;;8.43;;
74162;SDS011;62515;52.758;5.076;2022-10-04T16:52:26;9.02;;;7.55;;
74162;SDS011;62515;52.758;5.076;2022-10-04T16:55:09;15.98;;;7.40;;
74162;SDS011;62515;52.758;5.076;2022-10-04T17:00:47;9.90;;;6.90;;
74162;SDS011;62515;52.758;5.076;2022-10-04T17:03:18;11.30;;;7.60;;
74162;SDS011;62515;52.758;5.076;2022-10-04T17:05:58;11.25;;;6.75;;
74162;SDS011;62515;52.758;5.076;2022-10-04T17:08:47;7.57;;;6.57;;
74162;SDS011;62515;52.758;5.076;2022-10-04T17:14:01;11.73;;;7.38;;
74162;SDS011;62515;52.758;5.076;2022-10-04T17:16:47;10.40;;;6.75;;
74162;SDS011;62515;52.758;5.076;2022-10-04T17:19:30;8.52;;;6.50;;
74162;SDS011;62515;52.758;5.076;2022-10-04T17:22:03;10.82;;;7.32;;
74162;SDS011;62515;52.758;5.076;2022-10-04T17:27:41;9.05;;;7.90;;
74162;SDS011;62515;52.758;5.076;2022-10-04T17:30:13;8.00;;;6.70;;
74162;SDS011;62515;52.758;5.076;2022-10-04T17:32:47;15.48;;;13.88;;
74162;SDS011;62515;52.758;5.076;2022-10-04T17:35:44;9.73;;;7.22;;
74162;SDS011;62515;52.758;5.076;2022-10-04T17:38:24;8.23;;;6.30;;
74162;SDS011;62515;52.758;5.076;2022-10-04T17:41:02;9.20;;;7.20;;
74162;SDS011;62515;52.758;5.076;2022-10-04T17:43:36;11.75;;;7.63;;
74162;SDS011;62515;52.758;5.076;2022-10-04T17:46:10;8.35;;;7.03;;
74162;SDS011;62515;52.758;5.076;2022-10-04T17:48:43;8.43;;;6.93;;
74162;SDS011;62515;52.758;5.076;2022-10-04T17:51:39;8.65;;;6.22;;
74162;SDS011;62515;52.758;5.076;2022-10-04T17:54:44;7.85;;;5.07;;
74162;SDS011;62515;52.758;5.076;2022-10-04T17:57:36;6.90;;;5.38;;
74162;SDS011;62515;52.758;5.076;2022-10-04T18:00:07;7.22;;;4.72;;
74162;SDS011;62515;52.758;5.076;2022-10-04T18:02:43;7.88;;;4.65;;
74162;SDS011;62515;52.758;5.076;2022-10-04T18:05:20;4.75;;;4.13;;
74162;SDS011;62515;52.758;5.076;2022-10-04T18:07:53;7.97;;;4.65;;
74162;SDS011;62515;52.758;5.076;2022-10-04T18:10:27;11.50;;;4.65;;
74162;SDS011;62515;52.758;5.076;2022-10-04T18:12:57;6.85;;;5.22;;
74162;SDS011;62515;52.758;5.076;2022-10-04T18:15:30;12.52;;;5.18;;
74162;SDS011;62515;52.758;5.076;2022-10-04T18:18:11;5.55;;;4.47;;
74162;SDS011;62515;52.758;5.076;2022-10-04T18:20:56;8.35;;;5.20;;
74162;SDS011;62515;52.758;5.076;2022-10-04T18:23:31;8.52;;;5.10;;